createdAt,value
2019-03-28T00:00:37.407Z,4.90
2019-03-28T00:03:05.893Z,4.90
2019-03-28T00:05:55.232Z,4.90
2019-03-28T00:08:23.772Z,4.90
2019-03-28T00:10:52.413Z,4.80
2019-03-28T00:13:20.971Z,4.80
2019-03-28T00:15:49.353Z,4.70
2019-03-28T00:18:17.924Z,4.60
2019-03-28T00:20:46.612Z,4.60
2019-03-28T00:23:16.472Z,4.60
2019-03-28T00:25:44.733Z,4.50
2019-03-28T00:28:12.964Z,4.50
2019-03-28T00:30:41.273Z,4.50
2019-03-28T00:33:09.512Z,4.50
2019-03-28T00:35:37.754Z,4.50
2019-03-28T00:38:05.983Z,4.40
2019-03-28T00:40:34.227Z,4.40
2019-03-28T00:43:02.474Z,4.30
2019-03-28T00:45:31.214Z,4.30
2019-03-28T00:47:59.502Z,4.30
2019-03-28T00:50:27.748Z,4.30
2019-03-28T00:52:55.986Z,4.20
2019-03-28T00:55:24.221Z,4.20
2019-03-28T00:57:52.448Z,4.20
2019-03-28T01:00:20.711Z,4.10
2019-03-28T01:02:48.945Z,4.20
2019-03-28T01:05:17.199Z,4.20
2019-03-28T01:07:45.685Z,4.20
2019-03-28T01:10:13.955Z,4.10
2019-03-28T01:12:42.186Z,4.10
2019-03-28T01:15:10.431Z,4.10
2019-03-28T01:17:38.731Z,4.10
2019-03-28T01:20:07.024Z,4.10
2019-03-28T01:22:35.269Z,4.10
2019-03-28T01:25:03.495Z,4.10
2019-03-28T01:27:31.736Z,4.10
2019-03-28T01:29:59.964Z,4.00
2019-03-28T01:32:28.311Z,4.10
2019-03-28T01:34:56.717Z,4.00
2019-03-28T01:37:24.953Z,4.00
2019-03-28T01:39:53.179Z,4.00
2019-03-28T01:42:21.427Z,4.00
2019-03-28T01:44:49.678Z,4.00
2019-03-28T01:47:18.133Z,3.90
2019-03-28T01:49:46.423Z,3.90
2019-03-28T01:52:14.677Z,3.90
2019-03-28T01:54:43.071Z,3.80
2019-03-28T01:57:12.314Z,3.80
2019-03-28T01:59:41.228Z,3.80
2019-03-28T02:02:09.486Z,3.80
2019-03-28T02:04:37.707Z,3.80
2019-03-28T02:07:06.069Z,3.80
2019-03-28T02:09:34.304Z,3.80
2019-03-28T02:12:02.522Z,3.80
2019-03-28T02:14:30.768Z,3.80
2019-03-28T02:17:18.459Z,3.70
2019-03-28T02:19:46.708Z,3.80
2019-03-28T02:22:14.965Z,3.80
2019-03-28T02:24:43.211Z,3.70
2019-03-28T02:27:23.373Z,3.80
2019-03-28T02:29:41.424Z,3.70
2019-03-28T02:32:09.668Z,3.70
2019-03-28T02:34:37.917Z,3.60
2019-03-28T02:37:06.178Z,3.60
2019-03-28T02:39:34.472Z,3.60
2019-03-28T02:42:02.695Z,3.50
2019-03-28T02:44:30.925Z,3.50
2019-03-28T02:46:59.162Z,3.50
2019-03-28T02:49:27.406Z,3.40
2019-03-28T02:51:55.691Z,3.40
2019-03-28T02:54:24.147Z,3.40
2019-03-28T02:56:52.381Z,3.40
2019-03-28T02:59:20.627Z,3.40
2019-03-28T03:01:48.838Z,3.40
2019-03-28T03:04:17.114Z,3.40
2019-03-28T03:06:45.382Z,3.40
2019-03-28T03:09:13.622Z,3.40
2019-03-28T03:11:42.979Z,3.30
2019-03-28T03:14:12.023Z,3.30
2019-03-28T03:16:40.612Z,3.30
2019-03-28T03:19:08.824Z,3.30
2019-03-28T03:21:37.076Z,3.30
2019-03-28T03:24:05.306Z,3.30
2019-03-28T03:26:33.621Z,3.30
2019-03-28T03:29:01.870Z,3.30
2019-03-28T03:31:30.120Z,3.20
2019-03-28T03:33:58.421Z,3.20
2019-03-28T03:36:26.653Z,3.20
2019-03-28T03:38:54.903Z,3.10
2019-03-28T03:41:23.129Z,3.10
2019-03-28T03:43:51.356Z,3.10
2019-03-28T03:46:19.722Z,3.20
2019-03-28T03:48:48.117Z,3.10
2019-03-28T03:51:16.370Z,3.20
2019-03-28T03:53:44.596Z,3.10
2019-03-28T03:56:12.831Z,3.10
2019-03-28T03:58:41.080Z,3.10
2019-03-28T04:01:09.373Z,3.10
2019-03-28T04:03:37.591Z,3.00
2019-03-28T04:06:05.840Z,3.00
2019-03-28T04:08:34.099Z,3.00
2019-03-28T04:11:02.330Z,3.00
2019-03-28T04:13:30.581Z,3.00
2019-03-28T04:15:58.807Z,2.90
2019-03-28T04:18:27.023Z,2.90
2019-03-28T04:20:55.273Z,2.80
2019-03-28T04:23:23.516Z,2.80
2019-03-28T04:25:51.747Z,2.70
2019-03-28T04:28:31.383Z,2.80
2019-03-28T04:30:49.970Z,2.80
2019-03-28T04:33:18.226Z,2.80
2019-03-28T04:35:46.505Z,2.70
2019-03-28T04:38:14.741Z,2.70
2019-03-28T04:40:42.962Z,2.70
2019-03-28T04:43:11.217Z,2.70
2019-03-28T04:45:39.435Z,2.60
2019-03-28T04:48:07.646Z,2.60
2019-03-28T04:50:36.225Z,2.50
2019-03-28T04:53:04.603Z,2.50
2019-03-28T04:55:32.827Z,2.50
2019-03-28T04:58:01.080Z,2.50
2019-03-28T05:00:29.316Z,2.50
2019-03-28T05:02:57.806Z,2.50
2019-03-28T05:05:26.169Z,2.40
2019-03-28T05:07:54.390Z,2.50
2019-03-28T05:10:22.635Z,2.50
2019-03-28T05:12:51.459Z,2.40
2019-03-28T05:15:20.548Z,2.40
2019-03-28T05:17:48.870Z,2.40
2019-03-28T05:20:17.117Z,2.40
2019-03-28T05:22:45.346Z,2.40
2019-03-28T05:25:13.672Z,2.30
2019-03-28T05:27:41.925Z,2.30
2019-03-28T05:30:10.154Z,2.30
2019-03-28T05:32:38.382Z,2.20
2019-03-28T05:35:07.430Z,2.20
2019-03-28T05:37:36.402Z,2.30
2019-03-28T05:40:07.851Z,2.30
2019-03-28T05:42:36.106Z,2.30
2019-03-28T05:45:06.291Z,2.30
2019-03-28T05:47:34.525Z,2.30
2019-03-28T05:50:02.795Z,2.30
2019-03-28T05:52:31.025Z,2.30
2019-03-28T05:54:59.256Z,2.30
2019-03-28T05:57:27.499Z,2.30
2019-03-28T05:59:55.727Z,2.30
2019-03-28T06:02:24.365Z,2.30
2019-03-28T06:04:52.657Z,2.30
2019-03-28T06:07:20.876Z,2.40
2019-03-28T06:09:49.099Z,2.40
2019-03-28T06:12:19.003Z,2.50
2019-03-28T06:14:47.389Z,2.70
2019-03-28T06:17:15.605Z,2.70
2019-03-28T06:19:43.855Z,2.80
2019-03-28T06:22:12.080Z,2.90
2019-03-28T06:24:40.294Z,3.00
2019-03-28T06:27:08.558Z,3.10
2019-03-28T06:29:36.785Z,3.20
2019-03-28T06:32:05.016Z,3.30
2019-03-28T06:34:33.265Z,3.40
2019-03-28T06:37:01.494Z,3.50
2019-03-28T06:39:29.715Z,3.60
2019-03-28T06:41:57.973Z,3.70
2019-03-28T06:44:26.213Z,3.80
2019-03-28T06:46:55.258Z,3.90
2019-03-28T06:49:23.586Z,4.00
2019-03-28T06:51:51.815Z,4.10
2019-03-28T06:54:20.194Z,4.20
2019-03-28T06:56:48.445Z,4.30
2019-03-28T06:59:16.803Z,4.40
2019-03-28T07:01:45.031Z,4.50
2019-03-28T07:04:13.271Z,4.60
2019-03-28T07:06:41.512Z,4.70
2019-03-28T07:09:09.755Z,4.80
2019-03-28T07:11:38.086Z,5.00
2019-03-28T07:14:06.317Z,5.10
2019-03-28T07:16:34.553Z,5.20
2019-03-28T07:19:02.805Z,5.30
2019-03-28T07:21:31.055Z,5.40
2019-03-28T07:23:59.317Z,5.50
2019-03-28T07:26:27.624Z,5.60
2019-03-28T07:28:55.923Z,5.70
2019-03-28T07:31:24.138Z,5.80
2019-03-28T07:33:52.451Z,6.00
2019-03-28T07:36:20.721Z,6.00
2019-03-28T07:38:48.994Z,6.10
2019-03-28T07:41:17.300Z,6.30
2019-03-28T07:43:45.538Z,6.30
2019-03-28T07:46:13.821Z,6.50
2019-03-28T07:48:42.090Z,6.60
2019-03-28T07:51:10.340Z,6.70
2019-03-28T07:53:38.579Z,6.70
2019-03-28T07:56:06.911Z,6.90
2019-03-28T07:58:35.383Z,7.00
2019-03-28T08:01:03.990Z,7.20
2019-03-28T08:03:32.337Z,7.40
2019-03-28T08:06:00.634Z,7.50
2019-03-28T08:08:38.224Z,7.60
2019-03-28T08:10:58.838Z,7.70
2019-03-28T08:13:27.124Z,7.70
2019-03-28T08:15:55.730Z,8.00
2019-03-28T08:18:24.030Z,8.10
2019-03-28T08:20:52.386Z,8.20
2019-03-28T08:23:20.739Z,8.30
2019-03-28T08:25:48.972Z,8.40
2019-03-28T08:28:17.251Z,8.60
2019-03-28T08:30:45.610Z,8.80
2019-03-28T08:33:13.881Z,9.10
2019-03-28T08:35:42.214Z,9.20
2019-03-28T08:38:10.564Z,9.30
2019-03-28T08:40:43.017Z,9.60
2019-03-28T08:43:11.489Z,9.80
2019-03-28T08:45:39.774Z,10.20
2019-03-28T08:48:08.012Z,10.40
2019-03-28T08:50:36.277Z,10.50
2019-03-28T08:53:04.539Z,10.70
2019-03-28T08:55:32.813Z,10.90
2019-03-28T08:58:01.060Z,11.10
2019-03-28T09:00:35.046Z,11.20
2019-03-28T09:02:59.471Z,11.40
2019-03-28T09:05:27.726Z,11.40
2019-03-28T09:07:56.220Z,11.50
2019-03-28T09:10:24.548Z,11.70
2019-03-28T09:12:52.801Z,11.90
2019-03-28T09:15:21.111Z,12.10
2019-03-28T09:17:49.366Z,12.20
2019-03-28T09:20:17.617Z,12.40
2019-03-28T09:22:45.843Z,12.50
2019-03-28T09:25:14.185Z,12.70
2019-03-28T09:27:42.438Z,12.80
2019-03-28T09:30:12.032Z,13.10
2019-03-28T09:32:40.369Z,13.30
2019-03-28T09:35:09.573Z,13.60
2019-03-28T09:37:37.798Z,13.70
2019-03-28T09:40:06.062Z,14.00
2019-03-28T09:42:34.288Z,14.10
2019-03-28T09:45:02.917Z,14.40
2019-03-28T09:47:31.160Z,14.50
2019-03-28T09:49:59.372Z,14.60
2019-03-28T09:52:27.608Z,14.70
2019-03-28T09:54:55.856Z,14.90
2019-03-28T09:57:24.081Z,14.90
2019-03-28T09:59:52.302Z,15.10
2019-03-28T10:02:20.553Z,15.20
2019-03-28T10:04:48.801Z,15.20
2019-03-28T10:07:17.029Z,15.30
2019-03-28T10:09:45.638Z,15.40
2019-03-28T10:12:13.991Z,15.60
2019-03-28T10:14:42.223Z,15.80
2019-03-28T10:17:10.489Z,15.90
2019-03-28T10:19:38.702Z,16.00
2019-03-28T10:22:06.938Z,16.20
2019-03-28T10:24:35.192Z,16.30
2019-03-28T10:27:03.427Z,16.30
2019-03-28T10:29:31.679Z,16.40
2019-03-28T10:31:59.922Z,16.50
2019-03-28T10:34:28.161Z,16.70
2019-03-28T10:36:56.427Z,16.90
2019-03-28T10:39:24.653Z,17.00
2019-03-28T10:41:52.890Z,17.20
2019-03-28T10:44:21.135Z,17.10
2019-03-28T10:46:49.355Z,16.80
2019-03-28T10:49:17.627Z,16.60
2019-03-28T10:51:45.859Z,16.70
2019-03-28T10:54:20.021Z,16.90
2019-03-28T10:56:51.717Z,17.20
2019-03-28T10:59:23.356Z,17.20
2019-03-28T11:01:50.010Z,16.90
2019-03-28T11:04:14.092Z,16.60
2019-03-28T11:06:42.346Z,16.40
2019-03-28T11:09:10.589Z,16.80
2019-03-28T11:11:38.816Z,17.40
2019-03-28T11:14:07.096Z,17.80
2019-03-28T11:16:35.320Z,18.50
2019-03-28T11:19:03.548Z,19.10
2019-03-28T11:21:34.356Z,19.60
2019-03-28T11:24:01.785Z,19.80
2019-03-28T11:26:30.041Z,19.20
2019-03-28T11:29:00.921Z,19.50
2019-03-28T11:31:28.273Z,19.90
2019-03-28T11:33:56.682Z,20.30
2019-03-28T11:36:25.214Z,20.60
2019-03-28T11:38:54.883Z,21.00
2019-03-28T11:41:23.239Z,21.10
2019-03-28T11:43:51.491Z,21.30
2019-03-28T11:46:19.726Z,21.90
2019-03-28T11:48:47.951Z,22.60
2019-03-28T11:51:16.210Z,22.30
2019-03-28T11:53:44.436Z,21.40
2019-03-28T11:56:12.674Z,21.30
2019-03-28T11:58:40.926Z,22.50
2019-03-28T12:01:09.163Z,22.70
2019-03-28T12:03:37.402Z,21.50
2019-03-28T12:06:05.662Z,20.70
2019-03-28T12:08:33.894Z,20.10
2019-03-28T12:11:02.182Z,19.60
2019-03-28T12:13:43.709Z,18.80
2019-03-28T12:16:00.364Z,18.30
2019-03-28T12:18:28.659Z,17.90
2019-03-28T12:20:56.884Z,17.80
2019-03-28T12:23:25.111Z,17.50
2019-03-28T12:25:53.376Z,17.40
2019-03-28T12:28:21.622Z,17.50
2019-03-28T12:30:49.884Z,17.40
2019-03-28T12:33:18.112Z,17.30
2019-03-28T12:35:46.331Z,17.30
2019-03-28T12:38:14.664Z,17.50
2019-03-28T12:40:42.898Z,17.50
2019-03-28T12:43:11.125Z,17.40
2019-03-28T12:45:39.364Z,17.20
2019-03-28T12:48:07.615Z,17.10
2019-03-28T12:50:35.861Z,17.00
2019-03-28T12:53:04.091Z,16.90
2019-03-28T12:55:32.361Z,16.80
2019-03-28T12:58:00.574Z,16.50
2019-03-28T13:00:33.797Z,16.40
2019-03-28T13:03:02.052Z,16.40
2019-03-28T13:05:30.306Z,16.30
2019-03-28T13:07:58.819Z,16.40
2019-03-28T13:10:27.444Z,16.40
2019-03-28T13:12:55.887Z,16.50
2019-03-28T13:15:24.113Z,16.50
2019-03-28T13:17:52.366Z,16.40
2019-03-28T13:20:22.220Z,16.50
2019-03-28T13:22:52.033Z,16.50
2019-03-28T13:25:20.448Z,16.50
2019-03-28T13:27:48.695Z,16.60
2019-03-28T13:30:17.533Z,16.60
2019-03-28T13:32:45.769Z,16.60
2019-03-28T13:35:13.998Z,16.60
2019-03-28T13:37:42.238Z,16.70
2019-03-28T13:40:10.463Z,16.70
2019-03-28T13:42:39.098Z,16.60
2019-03-28T13:45:07.868Z,16.60
2019-03-28T13:47:36.103Z,16.60
2019-03-28T13:50:09.394Z,16.60
2019-03-28T13:52:37.624Z,16.60
2019-03-28T13:55:08.580Z,17.00
2019-03-28T13:57:36.854Z,17.60
2019-03-28T14:00:06.704Z,18.00
2019-03-28T14:02:35.399Z,18.20
2019-03-28T14:05:04.956Z,18.00
2019-03-28T14:07:33.208Z,17.80
2019-03-28T14:10:01.512Z,17.80
2019-03-28T14:12:29.930Z,18.00
2019-03-28T14:14:58.242Z,18.30
2019-03-28T14:17:26.450Z,18.30
2019-03-28T14:19:54.673Z,18.50
2019-03-28T14:22:23.064Z,18.40
2019-03-28T14:24:51.385Z,18.10
2019-03-28T14:27:19.725Z,17.70
2019-03-28T14:29:47.979Z,17.60
2019-03-28T14:32:16.340Z,17.50
2019-03-28T14:34:44.582Z,17.50
2019-03-28T14:37:12.934Z,17.30
2019-03-28T14:39:41.218Z,17.10
2019-03-28T14:42:09.799Z,17.00
2019-03-28T14:44:38.103Z,16.80
2019-03-28T14:47:06.369Z,16.60
2019-03-28T14:49:34.686Z,16.40
2019-03-28T14:52:02.992Z,16.30
2019-03-28T14:54:31.237Z,16.10
2019-03-28T14:56:59.450Z,15.90
2019-03-28T14:59:32.852Z,15.70
2019-03-28T15:01:57.859Z,15.60
2019-03-28T15:04:26.108Z,15.50
2019-03-28T15:06:54.400Z,15.40
2019-03-28T15:09:22.637Z,15.30
2019-03-28T15:11:50.939Z,15.20
2019-03-28T15:14:19.236Z,15.20
2019-03-28T15:16:47.699Z,15.10
2019-03-28T15:19:16.066Z,15.10
2019-03-28T15:21:44.374Z,15.00
2019-03-28T15:24:12.650Z,15.00
2019-03-28T15:26:40.898Z,15.00
2019-03-28T15:29:09.117Z,15.00
2019-03-28T15:31:37.367Z,15.00
2019-03-28T15:34:05.591Z,15.10
2019-03-28T15:36:33.824Z,15.10
2019-03-28T15:39:02.110Z,15.00
2019-03-28T15:41:30.351Z,15.00
2019-03-28T15:43:58.587Z,15.00
2019-03-28T15:46:26.941Z,15.00
2019-03-28T15:48:55.192Z,15.00
2019-03-28T15:51:23.454Z,15.00
2019-03-28T15:53:51.702Z,14.90
2019-03-28T15:56:20.010Z,14.80
2019-03-28T15:58:48.372Z,14.80
2019-03-28T16:01:16.627Z,14.70
2019-03-28T16:03:52.928Z,14.60
2019-03-28T16:06:14.902Z,14.50
2019-03-28T16:08:43.215Z,14.50
2019-03-28T16:11:11.528Z,14.40
2019-03-28T16:13:39.769Z,14.40
2019-03-28T16:16:08.010Z,14.30
2019-03-28T16:18:36.251Z,14.20
2019-03-28T16:21:04.516Z,14.20
2019-03-28T16:23:32.735Z,14.10
2019-03-28T16:26:01.002Z,14.10
2019-03-28T16:28:29.366Z,14.10
2019-03-28T16:30:57.589Z,14.10
2019-03-28T16:33:25.822Z,14.00
2019-03-28T16:35:54.103Z,14.10
2019-03-28T16:38:22.333Z,14.10
2019-03-28T16:40:50.565Z,14.10
2019-03-28T16:43:19.296Z,14.10
2019-03-28T16:45:47.507Z,14.00
2019-03-28T16:48:15.757Z,14.00
2019-03-28T16:50:44.145Z,14.00
2019-03-28T16:53:12.432Z,13.90
2019-03-28T16:55:40.670Z,13.80
2019-03-28T16:58:09.029Z,13.80
2019-03-28T17:00:37.834Z,13.70
2019-03-28T17:03:06.268Z,13.70
2019-03-28T17:05:34.858Z,13.60
2019-03-28T17:08:04.861Z,13.50
2019-03-28T17:10:44.636Z,13.50
2019-03-28T17:13:13.214Z,13.40
2019-03-28T17:15:41.427Z,13.40
2019-03-28T17:18:09.660Z,13.30
2019-03-28T17:20:37.910Z,13.20
2019-03-28T17:23:06.136Z,13.20
2019-03-28T17:25:34.357Z,13.10
2019-03-28T17:28:02.613Z,13.10
2019-03-28T17:30:30.859Z,13.10
2019-03-28T17:32:59.284Z,13.10
2019-03-28T17:35:27.511Z,13.00
2019-03-28T17:37:55.761Z,13.00
2019-03-28T17:40:23.997Z,12.90
2019-03-28T17:42:52.231Z,12.90
2019-03-28T17:45:20.446Z,12.80
2019-03-28T17:47:48.709Z,12.80
2019-03-28T17:50:17.558Z,12.80
2019-03-28T17:52:45.927Z,12.70
2019-03-28T17:55:14.186Z,12.70
2019-03-28T17:57:42.451Z,12.60
2019-03-28T18:00:11.433Z,12.60
2019-03-28T18:02:39.669Z,12.50
2019-03-28T18:05:09.543Z,12.50
2019-03-28T18:07:37.857Z,12.40
2019-03-28T18:10:06.363Z,12.40
2019-03-28T18:12:34.595Z,12.30
2019-03-28T18:15:02.996Z,12.20
2019-03-28T18:17:31.296Z,12.20
2019-03-28T18:19:59.525Z,12.10
2019-03-28T18:22:27.787Z,12.00
2019-03-28T18:24:56.030Z,12.00
2019-03-28T18:27:24.306Z,11.90
2019-03-28T18:29:53.688Z,11.80
2019-03-28T18:32:22.067Z,11.70
2019-03-28T18:35:04.625Z,11.60
2019-03-28T18:37:20.287Z,11.60
2019-03-28T18:39:49.372Z,11.60
2019-03-28T18:42:17.587Z,11.60
2019-03-28T18:44:45.848Z,11.60
2019-03-28T18:47:14.074Z,11.50
2019-03-28T18:49:42.385Z,11.50
2019-03-28T18:52:10.630Z,11.50
2019-03-28T18:54:38.856Z,11.50
2019-03-28T18:57:07.090Z,11.50
2019-03-28T18:59:35.328Z,11.50
2019-03-28T19:02:03.562Z,11.50
2019-03-28T19:04:31.808Z,11.40
2019-03-28T19:07:00.112Z,11.40
2019-03-28T19:09:28.350Z,11.40
2019-03-28T19:11:56.598Z,11.50
2019-03-28T19:14:24.847Z,11.50
2019-03-28T19:16:53.064Z,11.50
2019-03-28T19:19:21.312Z,11.50
2019-03-28T19:21:49.554Z,11.50
2019-03-28T19:24:17.789Z,11.50
2019-03-28T19:26:46.017Z,11.50
2019-03-28T19:29:14.278Z,11.50
2019-03-28T19:31:42.509Z,11.50
2019-03-28T19:34:10.740Z,11.50
2019-03-28T19:36:39.019Z,11.50
2019-03-28T19:39:09.033Z,11.50
2019-03-28T19:41:37.686Z,11.50
2019-03-28T19:44:05.927Z,11.40
2019-03-28T19:46:34.178Z,11.40
2019-03-28T19:49:02.434Z,11.40
2019-03-28T19:51:30.649Z,11.30
2019-03-28T19:53:58.909Z,11.30
2019-03-28T19:56:27.149Z,11.30
2019-03-28T19:58:57.388Z,11.20
2019-03-28T20:01:25.346Z,11.20
2019-03-28T20:03:55.049Z,11.20
2019-03-28T20:06:24.347Z,11.30
2019-03-28T20:08:52.817Z,11.20
2019-03-28T20:11:21.113Z,11.30
2019-03-28T20:13:50.021Z,11.30
2019-03-28T20:16:18.473Z,11.30
2019-03-28T20:18:46.722Z,11.30
2019-03-28T20:21:14.960Z,11.40
2019-03-28T20:23:43.213Z,11.40
2019-03-28T20:26:11.431Z,11.40
2019-03-28T20:28:39.665Z,11.40
2019-03-28T20:31:07.913Z,11.40
2019-03-28T20:33:36.135Z,11.30
2019-03-28T20:36:29.979Z,11.30
2019-03-28T20:38:34.344Z,11.30
2019-03-28T20:41:02.612Z,11.20
2019-03-28T20:43:30.830Z,11.20
2019-03-28T20:45:59.051Z,11.20
2019-03-28T20:48:27.312Z,11.30
2019-03-28T20:50:55.538Z,11.20
2019-03-28T20:53:23.835Z,11.20
2019-03-28T20:55:52.076Z,11.20
2019-03-28T20:58:20.313Z,11.20
2019-03-28T21:00:48.578Z,11.20
2019-03-28T21:03:16.831Z,11.20
2019-03-28T21:05:45.165Z,11.20
2019-03-28T21:08:13.491Z,11.20
2019-03-28T21:10:41.729Z,11.20
2019-03-28T21:13:10.094Z,11.20
2019-03-28T21:15:38.385Z,11.20
2019-03-28T21:18:06.620Z,11.20
2019-03-28T21:20:34.898Z,11.20
2019-03-28T21:23:05.137Z,11.20
2019-03-28T21:25:33.080Z,11.20
2019-03-28T21:28:01.325Z,11.10
2019-03-28T21:30:29.547Z,11.10
2019-03-28T21:32:58.147Z,11.10
2019-03-28T21:35:26.414Z,11.10
2019-03-28T21:37:54.656Z,11.10
2019-03-28T21:40:22.875Z,11.10
2019-03-28T21:42:51.139Z,11.00
2019-03-28T21:45:19.377Z,11.00
2019-03-28T21:47:47.605Z,11.00
2019-03-28T21:50:15.864Z,11.00
2019-03-28T21:52:44.085Z,11.00
2019-03-28T21:55:12.500Z,11.00
2019-03-28T21:57:42.529Z,11.00
2019-03-28T22:00:10.705Z,11.00
2019-03-28T22:02:38.938Z,11.00
2019-03-28T22:05:07.188Z,11.00
2019-03-28T22:07:35.402Z,11.00
2019-03-28T22:10:08.534Z,11.00
2019-03-28T22:12:35.673Z,11.10
2019-03-28T22:15:06.397Z,11.00
2019-03-28T22:17:34.663Z,11.00
2019-03-28T22:20:03.269Z,11.00
2019-03-28T22:22:31.526Z,11.00
2019-03-28T22:24:59.735Z,11.00
2019-03-28T22:27:27.985Z,11.00
2019-03-28T22:29:56.215Z,11.00
2019-03-28T22:32:24.448Z,11.00
2019-03-28T22:34:52.695Z,11.00
2019-03-28T22:37:20.933Z,11.00
2019-03-28T22:39:49.194Z,11.00
2019-03-28T22:42:17.449Z,11.00
2019-03-28T22:44:45.691Z,11.00
2019-03-28T22:47:13.915Z,11.00
2019-03-28T22:49:42.168Z,11.00
2019-03-28T22:52:10.390Z,11.00
2019-03-28T22:54:38.638Z,11.00
2019-03-28T22:57:06.881Z,11.00
2019-03-28T22:59:35.133Z,10.90
2019-03-28T23:02:03.435Z,10.80
2019-03-28T23:04:31.688Z,10.70
2019-03-28T23:07:10.310Z,10.70
2019-03-28T23:09:29.908Z,10.60
2019-03-28T23:11:58.145Z,10.60
2019-03-28T23:14:26.371Z,10.60
2019-03-28T23:16:55.064Z,10.60
2019-03-28T23:19:23.529Z,10.50
2019-03-28T23:21:51.787Z,10.50
2019-03-28T23:24:20.043Z,10.40
2019-03-28T23:26:48.263Z,10.40
2019-03-28T23:29:16.502Z,10.40
2019-03-28T23:31:44.731Z,10.30
2019-03-28T23:34:13.051Z,10.30
2019-03-28T23:36:41.279Z,10.20
2019-03-28T23:39:09.530Z,10.20
2019-03-28T23:41:37.779Z,10.20
2019-03-28T23:44:06.003Z,10.10
2019-03-28T23:46:34.298Z,10.10
2019-03-28T23:49:02.568Z,10.00
2019-03-28T23:51:30.824Z,9.90
2019-03-28T23:53:59.047Z,9.90
2019-03-28T23:56:27.266Z,9.80
2019-03-28T23:58:55.528Z,9.80
